sensor_id;sensor_type;location;lat;lon;timestamp;pressure;altitude;pressure_sealevel;temperature;humidity
50093;BME280;35974;47.752;10.290;2023-06-14T00:00:39;93380.13;;;8.83;69.18
50093;BME280;35974;47.752;10.290;2023-06-14T00:03:08;93377.28;;;8.85;68.97
50093;BME280;35974;47.752;10.290;2023-06-14T00:05:36;93381.34;;;8.81;68.67
50093;BME280;35974;47.752;10.290;2023-06-14T00:08:09;93380.31;;;8.82;67.97
50093;BME280;35974;47.752;10.290;2023-06-14T00:10:37;93386.97;;;8.64;68.70
50093;BME280;35974;47.752;10.290;2023-06-14T00:13:04;93383.00;;;8.55;68.86
50093;BME280;35974;47.752;10.290;2023-06-14T00:18:21;93381.59;;;8.46;69.69
50093;BME280;35974;47.752;10.290;2023-06-14T00:20:50;93374.97;;;8.50;69.34
50093;BME280;35974;47.752;10.290;2023-06-14T00:23:18;93384.19;;;8.46;69.03
50093;BME280;35974;47.752;10.290;2023-06-14T00:25:55;93380.16;;;8.36;69.25
50093;BME280;35974;47.752;10.290;2023-06-14T00:28:21;93377.34;;;8.31;70.17
50093;BME280;35974;47.752;10.290;2023-06-14T00:30:48;93380.78;;;8.38;69.64
50093;BME280;35974;47.752;10.290;2023-06-14T00:33:14;93384.19;;;8.32;70.67
50093;BME280;35974;47.752;10.290;2023-06-14T00:35:42;93384.97;;;8.39;69.63
50093;BME280;35974;47.752;10.290;2023-06-14T00:38:08;93378.56;;;8.29;70.45
50093;BME280;35974;47.752;10.290;2023-06-14T00:40:35;93381.38;;;8.40;69.33
50093;BME280;35974;47.752;10.290;2023-06-14T00:43:01;93372.94;;;8.25;69.90
50093;BME280;35974;47.752;10.290;2023-06-14T00:45:28;93376.78;;;8.22;69.99
50093;BME280;35974;47.752;10.290;2023-06-14T00:47:54;93379.38;;;8.16;70.56
50093;BME280;35974;47.752;10.290;2023-06-14T00:50:23;93375.56;;;8.12;70.83
50093;BME280;35974;47.752;10.290;2023-06-14T00:52:49;93370.34;;;8.12;70.54
50093;BME280;35974;47.752;10.290;2023-06-14T00:55:16;93377.56;;;8.10;71.50
50093;BME280;35974;47.752;10.290;2023-06-14T00:57:42;93373.75;;;7.99;71.87
50093;BME280;35974;47.752;10.290;2023-06-14T01:00:09;93376.56;;;7.97;71.76
50093;BME280;35974;47.752;10.290;2023-06-14T01:02:36;93378.97;;;7.92;72.50
50093;BME280;35974;47.752;10.290;2023-06-14T01:05:04;93371.75;;;7.94;72.22
50093;BME280;35974;47.752;10.290;2023-06-14T01:10:12;93379.34;;;7.82;72.15
50093;BME280;35974;47.752;10.290;2023-06-14T01:15:29;93377.72;;;7.81;72.19
50093;BME280;35974;47.752;10.290;2023-06-14T01:17:56;93374.53;;;7.79;71.82
50093;BME280;35974;47.752;10.290;2023-06-14T01:20:29;93374.13;;;7.62;73.38
50093;BME280;35974;47.752;10.290;2023-06-14T01:22:57;93372.50;;;7.61;74.26
50093;BME280;35974;47.752;10.290;2023-06-14T01:25:23;93376.53;;;7.70;73.95
50093;BME280;35974;47.752;10.290;2023-06-14T01:27:53;93377.31;;;7.58;74.12
50093;BME280;35974;47.752;10.290;2023-06-14T01:30:20;93370.09;;;7.53;73.97
50093;BME280;35974;47.752;10.290;2023-06-14T01:32:48;93368.84;;;7.42;74.88
50093;BME280;35974;47.752;10.290;2023-06-14T01:35:16;93368.47;;;7.52;75.12
50093;BME280;35974;47.752;10.290;2023-06-14T01:37:43;93369.47;;;7.38;75.80
50093;BME280;35974;47.752;10.290;2023-06-14T01:40:11;93364.84;;;7.33;75.87
50093;BME280;35974;47.752;10.290;2023-06-14T01:42:39;93353.63;;;7.32;76.47
50093;BME280;35974;47.752;10.290;2023-06-14T01:45:06;93366.44;;;7.41;75.86
50093;BME280;35974;47.752;10.290;2023-06-14T01:47:33;93362.28;;;7.53;75.19
50093;BME280;35974;47.752;10.290;2023-06-14T01:50:00;93361.28;;;7.54;75.53
50093;BME280;35974;47.752;10.290;2023-06-14T01:52:27;93352.03;;;7.38;75.28
50093;BME280;35974;47.752;10.290;2023-06-14T01:54:54;93360.41;;;7.20;77.90
50093;BME280;35974;47.752;10.290;2023-06-14T01:57:20;93352.97;;;7.17;76.96
50093;BME280;35974;47.752;10.290;2023-06-14T01:59:49;93358.59;;;7.27;75.17
50093;BME280;35974;47.752;10.290;2023-06-14T02:02:16;93354.75;;;7.10;75.04
50093;BME280;35974;47.752;10.290;2023-06-14T02:04:43;93361.91;;;6.94;76.73
50093;BME280;35974;47.752;10.290;2023-06-14T02:07:09;93361.84;;;6.81;76.34
50093;BME280;35974;47.752;10.290;2023-06-14T02:09:36;93359.25;;;6.81;76.00
50093;BME280;35974;47.752;10.290;2023-06-14T02:12:02;93355.78;;;6.74;76.18
50093;BME280;35974;47.752;10.290;2023-06-14T02:14:29;93348.97;;;6.66;76.86
50093;BME280;35974;47.752;10.290;2023-06-14T02:16:55;93352.53;;;6.58;78.02
50093;BME280;35974;47.752;10.290;2023-06-14T02:19:21;93356.94;;;6.58;77.81
50093;BME280;35974;47.752;10.290;2023-06-14T02:21:48;93350.69;;;6.52;78.90
50093;BME280;35974;47.752;10.290;2023-06-14T02:24:14;93354.34;;;6.58;78.27
50093;BME280;35974;47.752;10.290;2023-06-14T02:26:41;93356.59;;;6.68;77.43
50093;BME280;35974;47.752;10.290;2023-06-14T02:29:08;93343.47;;;6.48;79.38
50093;BME280;35974;47.752;10.290;2023-06-14T02:31:42;93348.84;;;6.46;80.16
50093;BME280;35974;47.752;10.290;2023-06-14T02:34:08;93360.88;;;6.47;81.16
50093;BME280;35974;47.752;10.290;2023-06-14T02:36:35;93362.06;;;6.51;79.74
50093;BME280;35974;47.752;10.290;2023-06-14T02:39:08;93352.84;;;6.42;81.01
50093;BME280;35974;47.752;10.290;2023-06-14T02:41:44;93355.47;;;6.49;80.71
50093;BME280;35974;47.752;10.290;2023-06-14T02:44:12;93353.66;;;6.49;79.88
50093;BME280;35974;47.752;10.290;2023-06-14T02:46:39;93360.41;;;6.37;78.94
50093;BME280;35974;47.752;10.290;2023-06-14T02:49:05;93359.16;;;6.33;78.08
50093;BME280;35974;47.752;10.290;2023-06-14T02:51:32;93362.28;;;6.21;79.17
50093;BME280;35974;47.752;10.290;2023-06-14T02:53:58;93366.28;;;6.17;79.86
50093;BME280;35974;47.752;10.290;2023-06-14T02:56:25;93362.06;;;6.16;79.35
50093;BME280;35974;47.752;10.290;2023-06-14T02:58:52;93361.09;;;6.17;79.11
50093;BME280;35974;47.752;10.290;2023-06-14T03:01:19;93358.59;;;6.09;78.67
50093;BME280;35974;47.752;10.290;2023-06-14T03:03:47;93361.34;;;6.01;80.03
50093;BME280;35974;47.752;10.290;2023-06-14T03:06:15;93358.47;;;5.96;80.73
50093;BME280;35974;47.752;10.290;2023-06-14T03:08:43;93360.84;;;5.91;81.41
50093;BME280;35974;47.752;10.290;2023-06-14T03:11:10;93359.22;;;5.90;81.28
50093;BME280;35974;47.752;10.290;2023-06-14T03:13:36;93365.66;;;5.94;81.43
50093;BME280;35974;47.752;10.290;2023-06-14T03:16:03;93364.03;;;5.93;81.33
50093;BME280;35974;47.752;10.290;2023-06-14T03:18:30;93375.00;;;6.10;80.33
50093;BME280;35974;47.752;10.290;2023-06-14T03:20:59;93372.78;;;5.85;80.52
50093;BME280;35974;47.752;10.290;2023-06-14T03:23:25;93369.88;;;5.73;81.60
50093;BME280;35974;47.752;10.290;2023-06-14T03:25:51;93379.28;;;5.74;81.63
50093;BME280;35974;47.752;10.290;2023-06-14T03:28:18;93381.00;;;5.67;82.94
50093;BME280;35974;47.752;10.290;2023-06-14T03:30:44;93387.06;;;5.74;82.38
50093;BME280;35974;47.752;10.290;2023-06-14T03:33:11;93391.78;;;5.64;83.40
50093;BME280;35974;47.752;10.290;2023-06-14T03:35:37;93390.63;;;5.73;82.17
50093;BME280;35974;47.752;10.290;2023-06-14T03:38:03;93393.00;;;5.68;82.36
50093;BME280;35974;47.752;10.290;2023-06-14T03:40:30;93388.34;;;5.63;83.41
50093;BME280;35974;47.752;10.290;2023-06-14T03:42:57;93388.16;;;5.65;83.32
50093;BME280;35974;47.752;10.290;2023-06-14T03:45:23;93391.00;;;5.70;83.87
50093;BME280;35974;47.752;10.290;2023-06-14T03:47:50;93393.97;;;5.67;84.50
50093;BME280;35974;47.752;10.290;2023-06-14T03:50:17;93397.81;;;5.71;85.14
50093;BME280;35974;47.752;10.290;2023-06-14T03:52:44;93395.81;;;5.73;85.39
50093;BME280;35974;47.752;10.290;2023-06-14T03:55:11;93397.06;;;5.77;86.26
50093;BME280;35974;47.752;10.290;2023-06-14T03:57:42;93392.38;;;5.87;86.68
50093;BME280;35974;47.752;10.290;2023-06-14T04:00:09;93397.19;;;5.91;87.41
50093;BME280;35974;47.752;10.290;2023-06-14T04:02:36;93397.31;;;6.04;87.10
50093;BME280;35974;47.752;10.290;2023-06-14T04:05:05;93400.16;;;6.09;87.57
50093;BME280;35974;47.752;10.290;2023-06-14T04:37:09;93422.47;;;7.23;89.06
50093;BME280;35974;47.752;10.290;2023-06-14T04:39:36;93431.50;;;7.34;89.21
50093;BME280;35974;47.752;10.290;2023-06-14T04:42:09;93433.72;;;7.44;89.13
50093;BME280;35974;47.752;10.290;2023-06-14T04:44:39;93432.19;;;7.56;88.82
50093;BME280;35974;47.752;10.290;2023-06-14T04:47:05;93434.81;;;7.69;88.93
50093;BME280;35974;47.752;10.290;2023-06-14T04:49:38;93438.84;;;7.79;88.90
50093;BME280;35974;47.752;10.290;2023-06-14T04:52:07;93439.25;;;7.89;88.95
50093;BME280;35974;47.752;10.290;2023-06-14T04:54:36;93433.09;;;8.03;88.80
50093;BME280;35974;47.752;10.290;2023-06-14T04:57:09;93445.53;;;8.15;88.69
50093;BME280;35974;47.752;10.290;2023-06-14T05:02:14;93445.72;;;8.33;88.04
50093;BME280;35974;47.752;10.290;2023-06-14T05:04:40;93441.91;;;8.42;87.69
50093;BME280;35974;47.752;10.290;2023-06-14T05:07:09;93435.53;;;8.52;87.93
50093;BME280;35974;47.752;10.290;2023-06-14T05:09:36;93409.84;;;8.42;87.50
50093;BME280;35974;47.752;10.290;2023-06-14T05:12:03;93437.91;;;8.73;87.22
50093;BME280;35974;47.752;10.290;2023-06-14T05:14:30;93440.31;;;8.82;87.12
50093;BME280;35974;47.752;10.290;2023-06-14T05:16:57;93443.50;;;8.97;86.67
50093;BME280;35974;47.752;10.290;2023-06-14T05:19:23;93449.50;;;9.04;87.34
50093;BME280;35974;47.752;10.290;2023-06-14T05:21:51;93435.03;;;9.15;86.79
50093;BME280;35974;47.752;10.290;2023-06-14T05:26:48;93440.19;;;9.35;86.32
50093;BME280;35974;47.752;10.290;2023-06-14T05:29:15;93444.16;;;9.44;86.02
50093;BME280;35974;47.752;10.290;2023-06-14T05:31:42;93449.34;;;9.58;85.76
50093;BME280;35974;47.752;10.290;2023-06-14T05:34:09;93447.25;;;9.73;85.29
50093;BME280;35974;47.752;10.290;2023-06-14T05:39:18;93441.09;;;9.93;84.77
50093;BME280;35974;47.752;10.290;2023-06-14T05:41:44;93449.88;;;10.05;84.40
50093;BME280;35974;47.752;10.290;2023-06-14T05:44:13;93442.38;;;10.15;84.60
50093;BME280;35974;47.752;10.290;2023-06-14T05:46:40;93447.31;;;10.30;84.57
50093;BME280;35974;47.752;10.290;2023-06-14T05:49:07;93446.44;;;10.43;82.98
50093;BME280;35974;47.752;10.290;2023-06-14T05:51:33;93444.75;;;10.55;82.40
50093;BME280;35974;47.752;10.290;2023-06-14T05:54:00;93444.63;;;10.69;82.42
50093;BME280;35974;47.752;10.290;2023-06-14T05:56:26;93448.16;;;10.81;81.29
50093;BME280;35974;47.752;10.290;2023-06-14T05:58:58;93453.69;;;10.91;80.35
50093;BME280;35974;47.752;10.290;2023-06-14T06:01:24;93453.53;;;11.05;78.73
50093;BME280;35974;47.752;10.290;2023-06-14T06:03:51;93445.28;;;11.26;77.41
50093;BME280;35974;47.752;10.290;2023-06-14T06:06:18;93453.06;;;11.70;73.49
50093;BME280;35974;47.752;10.290;2023-06-14T06:08:44;93458.50;;;11.68;74.16
50093;BME280;35974;47.752;10.290;2023-06-14T06:11:10;93455.59;;;11.77;73.84
50093;BME280;35974;47.752;10.290;2023-06-14T06:13:37;93448.22;;;11.85;72.96
50093;BME280;35974;47.752;10.290;2023-06-14T06:16:05;93446.53;;;11.91;71.85
50093;BME280;35974;47.752;10.290;2023-06-14T06:18:32;93448.44;;;12.02;67.06
50093;BME280;35974;47.752;10.290;2023-06-14T06:20:59;93452.09;;;12.55;59.05
50093;BME280;35974;47.752;10.290;2023-06-14T06:23:25;93451.41;;;12.60;58.74
50093;BME280;35974;47.752;10.290;2023-06-14T06:25:52;93453.94;;;12.78;59.07
50093;BME280;35974;47.752;10.290;2023-06-14T06:28:18;93452.13;;;12.79;59.62
50093;BME280;35974;47.752;10.290;2023-06-14T06:30:48;93450.41;;;12.85;59.36
50093;BME280;35974;47.752;10.290;2023-06-14T06:33:14;93454.97;;;13.01;58.81
50093;BME280;35974;47.752;10.290;2023-06-14T06:35:41;93456.69;;;13.07;58.85
50093;BME280;35974;47.752;10.290;2023-06-14T06:38:07;93459.53;;;13.17;59.35
50093;BME280;35974;47.752;10.290;2023-06-14T06:40:35;93455.31;;;13.28;58.60
50093;BME280;35974;47.752;10.290;2023-06-14T06:43:02;93460.00;;;13.38;58.23
50093;BME280;35974;47.752;10.290;2023-06-14T06:45:29;93452.09;;;13.50;57.93
50093;BME280;35974;47.752;10.290;2023-06-14T06:47:56;93456.28;;;13.63;57.52
50093;BME280;35974;47.752;10.290;2023-06-14T06:50:23;93464.63;;;14.12;54.42
50093;BME280;35974;47.752;10.290;2023-06-14T06:52:51;93461.13;;;14.23;53.21
50093;BME280;35974;47.752;10.290;2023-06-14T06:55:17;93466.09;;;14.37;53.38
50093;BME280;35974;47.752;10.290;2023-06-14T06:57:45;93468.41;;;14.79;51.77
50093;BME280;35974;47.752;10.290;2023-06-14T07:00:11;93466.78;;;15.12;51.13
50093;BME280;35974;47.752;10.290;2023-06-14T07:02:39;93466.63;;;15.01;52.63
50093;BME280;35974;47.752;10.290;2023-06-14T07:05:12;93461.66;;;15.22;52.24
50093;BME280;35974;47.752;10.290;2023-06-14T07:07:39;93467.88;;;15.33;51.38
50093;BME280;35974;47.752;10.290;2023-06-14T07:10:06;93468.94;;;15.54;49.21
50093;BME280;35974;47.752;10.290;2023-06-14T07:12:33;93464.41;;;15.71;48.86
50093;BME280;35974;47.752;10.290;2023-06-14T07:15:02;93472.53;;;15.87;47.89
50093;BME280;35974;47.752;10.290;2023-06-14T07:17:28;93466.03;;;15.95;48.57
50093;BME280;35974;47.752;10.290;2023-06-14T07:19:55;93466.28;;;15.93;49.17
50093;BME280;35974;47.752;10.290;2023-06-14T07:22:22;93473.63;;;16.40;46.72
50093;BME280;35974;47.752;10.290;2023-06-14T07:24:48;93475.19;;;16.36;47.80
50093;BME280;35974;47.752;10.290;2023-06-14T07:27:14;93468.81;;;16.32;48.44
50093;BME280;35974;47.752;10.290;2023-06-14T07:29:41;93473.84;;;16.61;47.13
50093;BME280;35974;47.752;10.290;2023-06-14T07:32:07;93473.78;;;16.56;46.94
50093;BME280;35974;47.752;10.290;2023-06-14T07:34:34;93484.00;;;16.79;42.13
50093;BME280;35974;47.752;10.290;2023-06-14T07:37:00;93479.94;;;16.94;40.33
50093;BME280;35974;47.752;10.290;2023-06-14T07:39:26;93478.44;;;17.03;40.31
50093;BME280;35974;47.752;10.290;2023-06-14T07:41:53;93481.09;;;17.08;40.84
50093;BME280;35974;47.752;10.290;2023-06-14T07:44:19;93481.34;;;17.44;38.91
50093;BME280;35974;47.752;10.290;2023-06-14T07:46:46;93470.09;;;17.69;38.56
50093;BME280;35974;47.752;10.290;2023-06-14T07:49:15;93477.31;;;17.84;36.19
50093;BME280;35974;47.752;10.290;2023-06-14T07:51:42;93471.75;;;17.81;37.90
50093;BME280;35974;47.752;10.290;2023-06-14T07:54:10;93467.88;;;17.99;37.10
50093;BME280;35974;47.752;10.290;2023-06-14T07:56:36;93476.31;;;17.90;38.30
50093;BME280;35974;47.752;10.290;2023-06-14T07:59:03;93468.16;;;18.02;38.38
50093;BME280;35974;47.752;10.290;2023-06-14T08:01:29;93476.91;;;18.13;38.72
50093;BME280;35974;47.752;10.290;2023-06-14T08:03:56;93482.31;;;18.49;36.71
50093;BME280;35974;47.752;10.290;2023-06-14T08:06:22;93473.84;;;18.67;34.91
50093;BME280;35974;47.752;10.290;2023-06-14T08:08:49;93477.53;;;18.66;35.66
50093;BME280;35974;47.752;10.290;2023-06-14T08:11:15;93478.06;;;18.63;35.31
50093;BME280;35974;47.752;10.290;2023-06-14T08:13:41;93470.41;;;18.62;36.41
50093;BME280;35974;47.752;10.290;2023-06-14T08:16:08;93473.91;;;18.98;36.91
50093;BME280;35974;47.752;10.290;2023-06-14T08:21:16;93478.16;;;19.05;36.76
50093;BME280;35974;47.752;10.290;2023-06-14T08:23:42;93477.59;;;19.13;37.02
50093;BME280;35974;47.752;10.290;2023-06-14T08:26:09;93479.19;;;19.19;34.66
50093;BME280;35974;47.752;10.290;2023-06-14T08:28:36;93474.13;;;19.33;34.37
50093;BME280;35974;47.752;10.290;2023-06-14T08:31:02;93483.41;;;19.41;34.48
50093;BME280;35974;47.752;10.290;2023-06-14T08:33:29;93475.44;;;19.46;35.18
50093;BME280;35974;47.752;10.290;2023-06-14T08:35:56;93482.53;;;19.66;34.87
50093;BME280;35974;47.752;10.290;2023-06-14T08:38:22;93482.28;;;19.62;33.65
50093;BME280;35974;47.752;10.290;2023-06-14T08:40:50;93492.91;;;19.83;35.04
50093;BME280;35974;47.752;10.290;2023-06-14T08:43:16;93484.38;;;19.91;34.00
50093;BME280;35974;47.752;10.290;2023-06-14T08:45:43;93488.63;;;19.82;33.88
50093;BME280;35974;47.752;10.290;2023-06-14T08:48:12;93484.31;;;20.01;33.80
50093;BME280;35974;47.752;10.290;2023-06-14T08:50:43;93489.09;;;20.04;34.20
50093;BME280;35974;47.752;10.290;2023-06-14T08:53:11;93487.97;;;20.21;33.56
50093;BME280;35974;47.752;10.290;2023-06-14T08:55:43;93479.97;;;20.26;33.73
50093;BME280;35974;47.752;10.290;2023-06-14T08:58:09;93484.72;;;20.29;34.45
50093;BME280;35974;47.752;10.290;2023-06-14T09:00:40;93480.50;;;20.28;34.11
50093;BME280;35974;47.752;10.290;2023-06-14T09:03:09;93486.69;;;20.58;34.20
50093;BME280;35974;47.752;10.290;2023-06-14T09:05:39;93499.97;;;20.63;33.64
50093;BME280;35974;47.752;10.290;2023-06-14T09:08:06;93496.94;;;20.85;32.56
50093;BME280;35974;47.752;10.290;2023-06-14T09:10:32;93505.09;;;20.94;31.46
50093;BME280;35974;47.752;10.290;2023-06-14T09:13:01;93495.28;;;20.94;31.24
50093;BME280;35974;47.752;10.290;2023-06-14T09:15:27;93500.88;;;20.88;31.82
50093;BME280;35974;47.752;10.290;2023-06-14T09:17:54;93498.22;;;20.93;31.09
50093;BME280;35974;47.752;10.290;2023-06-14T09:20:23;93503.53;;;20.93;31.29
50093;BME280;35974;47.752;10.290;2023-06-14T09:22:49;93495.44;;;21.08;29.97
50093;BME280;35974;47.752;10.290;2023-06-14T09:25:16;93496.22;;;21.09;31.65
50093;BME280;35974;47.752;10.290;2023-06-14T09:28:06;93502.03;;;21.16;31.31
50093;BME280;35974;47.752;10.290;2023-06-14T09:30:32;93494.41;;;21.04;30.59
50093;BME280;35974;47.752;10.290;2023-06-14T09:32:59;93504.41;;;21.17;31.53
50093;BME280;35974;47.752;10.290;2023-06-14T09:35:27;93502.25;;;21.19;30.76
50093;BME280;35974;47.752;10.290;2023-06-14T09:38:02;93496.38;;;21.23;30.92
50093;BME280;35974;47.752;10.290;2023-06-14T09:40:31;93497.75;;;21.49;30.83
50093;BME280;35974;47.752;10.290;2023-06-14T09:42:59;93505.44;;;21.56;32.41
50093;BME280;35974;47.752;10.290;2023-06-14T09:45:26;93493.78;;;21.76;31.17
50093;BME280;35974;47.752;10.290;2023-06-14T09:47:55;93502.63;;;21.96;31.32
50093;BME280;35974;47.752;10.290;2023-06-14T09:50:33;93507.81;;;22.06;30.21
50093;BME280;35974;47.752;10.290;2023-06-14T09:53:05;93502.41;;;22.16;29.85
50093;BME280;35974;47.752;10.290;2023-06-14T09:55:36;93502.75;;;22.28;30.29
50093;BME280;35974;47.752;10.290;2023-06-14T09:58:04;93493.97;;;22.52;31.01
50093;BME280;35974;47.752;10.290;2023-06-14T10:00:31;93488.50;;;22.62;30.92
50093;BME280;35974;47.752;10.290;2023-06-14T10:03:00;93491.22;;;22.95;31.93
50093;BME280;35974;47.752;10.290;2023-06-14T10:05:29;93491.56;;;23.27;32.82
50093;BME280;35974;47.752;10.290;2023-06-14T10:07:59;93480.31;;;23.44;30.88
50093;BME280;35974;47.752;10.290;2023-06-14T10:10:26;93498.25;;;23.57;31.32
50093;BME280;35974;47.752;10.290;2023-06-14T10:12:52;93500.03;;;23.62;31.06
50093;BME280;35974;47.752;10.290;2023-06-14T10:15:20;93493.63;;;23.76;29.76
50093;BME280;35974;47.752;10.290;2023-06-14T10:17:56;93491.69;;;23.96;29.64
50093;BME280;35974;47.752;10.290;2023-06-14T10:22:55;93496.06;;;24.20;27.71
50093;BME280;35974;47.752;10.290;2023-06-14T10:25:28;93487.44;;;24.23;25.97
50093;BME280;35974;47.752;10.290;2023-06-14T10:30:39;93491.38;;;24.39;27.02
50093;BME280;35974;47.752;10.290;2023-06-14T10:33:07;93481.97;;;24.28;27.69
50093;BME280;35974;47.752;10.290;2023-06-14T10:35:34;93483.34;;;24.39;28.41
50093;BME280;35974;47.752;10.290;2023-06-14T10:38:10;93488.31;;;24.32;27.55
50093;BME280;35974;47.752;10.290;2023-06-14T10:40:37;93483.34;;;24.39;27.57
50093;BME280;35974;47.752;10.290;2023-06-14T10:43:20;93481.56;;;24.48;28.03
50093;BME280;35974;47.752;10.290;2023-06-14T10:48:52;93486.50;;;23.72;28.39
50093;BME280;35974;47.752;10.290;2023-06-14T10:51:23;93480.63;;;23.89;28.51
50093;BME280;35974;47.752;10.290;2023-06-14T10:53:49;93482.38;;;24.07;26.74
50093;BME280;35974;47.752;10.290;2023-06-14T10:56:32;93486.31;;;24.24;27.13
50093;BME280;35974;47.752;10.290;2023-06-14T10:58:58;93486.16;;;24.06;27.54
50093;BME280;35974;47.752;10.290;2023-06-14T11:04:12;93489.72;;;23.88;28.57
50093;BME280;35974;47.752;10.290;2023-06-14T11:06:45;93487.69;;;23.80;29.11
50093;BME280;35974;47.752;10.290;2023-06-14T11:09:35;93488.88;;;23.73;28.84
50093;BME280;35974;47.752;10.290;2023-06-14T11:12:08;93483.06;;;23.06;28.24
50093;BME280;35974;47.752;10.290;2023-06-14T11:14:36;93480.41;;;23.06;29.36
50093;BME280;35974;47.752;10.290;2023-06-14T11:17:02;93479.09;;;23.22;29.45
50093;BME280;35974;47.752;10.290;2023-06-14T11:19:29;93481.84;;;23.17;28.22
50093;BME280;35974;47.752;10.290;2023-06-14T11:22:01;93486.44;;;23.44;29.21
50093;BME280;35974;47.752;10.290;2023-06-14T11:24:42;93493.59;;;23.49;28.23
50093;BME280;35974;47.752;10.290;2023-06-14T11:27:09;93494.00;;;23.56;28.13
50093;BME280;35974;47.752;10.290;2023-06-14T11:29:47;93495.22;;;23.77;26.73
50093;BME280;35974;47.752;10.290;2023-06-14T11:32:13;93480.38;;;23.71;26.58
50093;BME280;35974;47.752;10.290;2023-06-14T11:34:40;93484.91;;;23.57;28.17
50093;BME280;35974;47.752;10.290;2023-06-14T11:37:06;93480.94;;;23.68;27.84
50093;BME280;35974;47.752;10.290;2023-06-14T11:39:33;93486.13;;;23.79;29.18
50093;BME280;35974;47.752;10.290;2023-06-14T11:41:59;93483.50;;;23.46;27.66
50093;BME280;35974;47.752;10.290;2023-06-14T11:44:27;93482.13;;;23.62;28.58
50093;BME280;35974;47.752;10.290;2023-06-14T11:46:54;93477.66;;;23.11;29.06
50093;BME280;35974;47.752;10.290;2023-06-14T11:49:23;93479.09;;;23.22;28.55
50093;BME280;35974;47.752;10.290;2023-06-14T11:51:49;93474.25;;;23.24;28.98
50093;BME280;35974;47.752;10.290;2023-06-14T11:54:16;93487.69;;;23.66;29.09
50093;BME280;35974;47.752;10.290;2023-06-14T11:56:42;93478.88;;;23.65;28.08
50093;BME280;35974;47.752;10.290;2023-06-14T11:59:09;93478.13;;;23.79;28.52
50093;BME280;35974;47.752;10.290;2023-06-14T12:01:36;93484.50;;;23.64;27.36
50093;BME280;35974;47.752;10.290;2023-06-14T12:04:04;93482.34;;;23.80;28.17
50093;BME280;35974;47.752;10.290;2023-06-14T12:06:31;93473.47;;;23.84;27.73
50093;BME280;35974;47.752;10.290;2023-06-14T12:09:05;93475.28;;;23.89;28.20
50093;BME280;35974;47.752;10.290;2023-06-14T12:11:36;93478.28;;;23.68;27.45
50093;BME280;35974;47.752;10.290;2023-06-14T12:14:04;93473.38;;;23.43;27.50
50093;BME280;35974;47.752;10.290;2023-06-14T12:16:34;93468.72;;;23.67;28.01
50093;BME280;35974;47.752;10.290;2023-06-14T12:19:14;93475.22;;;23.75;27.19
50093;BME280;35974;47.752;10.290;2023-06-14T12:21:41;93477.75;;;23.38;27.80
50093;BME280;35974;47.752;10.290;2023-06-14T12:24:08;93476.75;;;23.34;29.32
50093;BME280;35974;47.752;10.290;2023-06-14T12:26:38;93475.16;;;23.33;29.36
50093;BME280;35974;47.752;10.290;2023-06-14T12:29:06;93478.81;;;23.04;28.86
50093;BME280;35974;47.752;10.290;2023-06-14T12:31:37;93478.66;;;23.15;28.73
50093;BME280;35974;47.752;10.290;2023-06-14T12:34:04;93475.25;;;23.28;28.28
50093;BME280;35974;47.752;10.290;2023-06-14T12:36:31;93473.44;;;23.56;28.26
50093;BME280;35974;47.752;10.290;2023-06-14T12:38:58;93467.91;;;23.81;27.22
50093;BME280;35974;47.752;10.290;2023-06-14T12:41:24;93466.75;;;24.01;27.46
50093;BME280;35974;47.752;10.290;2023-06-14T12:43:52;93472.09;;;24.01;27.82
50093;BME280;35974;47.752;10.290;2023-06-14T12:46:22;93480.78;;;24.34;28.42
50093;BME280;35974;47.752;10.290;2023-06-14T12:48:48;93476.06;;;24.03;27.40
50093;BME280;35974;47.752;10.290;2023-06-14T12:53:52;93479.41;;;24.23;27.79
50093;BME280;35974;47.752;10.290;2023-06-14T12:56:19;93472.69;;;24.11;26.25
50093;BME280;35974;47.752;10.290;2023-06-14T12:58:56;93484.34;;;24.16;27.65
50093;BME280;35974;47.752;10.290;2023-06-14T13:01:22;93479.22;;;24.05;25.88
50093;BME280;35974;47.752;10.290;2023-06-14T13:03:50;93484.75;;;24.09;26.72
50093;BME280;35974;47.752;10.290;2023-06-14T13:09:08;93490.81;;;23.54;26.98
50093;BME280;35974;47.752;10.290;2023-06-14T13:11:42;93473.69;;;23.88;27.26
50093;BME280;35974;47.752;10.290;2023-06-14T13:14:12;93473.66;;;24.16;26.97
50093;BME280;35974;47.752;10.290;2023-06-14T13:16:51;93487.25;;;24.19;28.28
50093;BME280;35974;47.752;10.290;2023-06-14T13:19:21;93477.22;;;24.25;27.49
50093;BME280;35974;47.752;10.290;2023-06-14T13:24:17;93479.00;;;24.16;27.14
50093;BME280;35974;47.752;10.290;2023-06-14T13:26:50;93476.34;;;24.16;27.30
50093;BME280;35974;47.752;10.290;2023-06-14T13:29:18;93483.75;;;24.19;27.72
50093;BME280;35974;47.752;10.290;2023-06-14T13:34:14;93484.66;;;23.39;26.85
50093;BME280;35974;47.752;10.290;2023-06-14T13:36:40;93483.50;;;23.46;28.96
50093;BME280;35974;47.752;10.290;2023-06-14T13:41:42;93479.72;;;24.21;26.77
50093;BME280;35974;47.752;10.290;2023-06-14T13:44:09;93479.19;;;24.33;27.24
50093;BME280;35974;47.752;10.290;2023-06-14T13:46:42;93478.91;;;23.93;27.11
50093;BME280;35974;47.752;10.290;2023-06-14T13:49:09;93478.41;;;24.19;26.67
50093;BME280;35974;47.752;10.290;2023-06-14T13:51:42;93478.16;;;24.06;25.76
50093;BME280;35974;47.752;10.290;2023-06-14T13:54:08;93477.00;;;24.35;27.39
50093;BME280;35974;47.752;10.290;2023-06-14T13:56:35;93483.75;;;24.19;27.34
50093;BME280;35974;47.752;10.290;2023-06-14T13:59:01;93475.38;;;24.11;26.30
50093;BME280;35974;47.752;10.290;2023-06-14T14:01:35;93477.41;;;24.42;27.03
50093;BME280;35974;47.752;10.290;2023-06-14T19:15:12;93672.22;;;18.96;41.10
50093;BME280;35974;47.752;10.290;2023-06-14T19:17:56;93674.81;;;18.86;42.34
50093;BME280;35974;47.752;10.290;2023-06-14T19:20:23;93680.59;;;18.78;43.14